Time;durP1;ratioP1;P1;durP2;ratioP2;P2;SDS_P1;SDS_P2;PMS_P1;PMS_P2;Temp;Humidity;BMP_temperature;BMP_pressure;BME280_temperature;BME280_humidity;BME280_pressure;Samples;Min_cycle;Max_cycle;Signal;HPM_P1;HPM_P2
2021/09/26 00:00:11;;;;;;;3.38;1.10;;;17.80;63.80;;;;;;4997867;28;20577;-69
2021/09/26 00:02:39;;;;;;;5.88;1.80;;;17.80;63.80;;;;;;5000275;28;20021;-72
2021/09/26 00:05:08;;;;;;;4.47;1.35;;;17.90;63.60;;;;;;4967057;28;20030;-70
2021/09/26 00:07:35;;;;;;;2.72;1.38;;;17.90;63.50;;;;;;4996570;28;20185;-70
2021/09/26 00:10:04;;;;;;;5.53;1.65;;;18.00;63.30;;;;;;4983357;28;20460;-69
2021/09/26 00:12:31;;;;;;;6.22;1.70;;;18.00;63.30;;;;;;4982359;28;20309;-68
2021/09/26 00:14:59;;;;;;;3.92;0.90;;;18.10;63.10;;;;;;4999471;28;20034;-67
2021/09/26 00:17:26;;;;;;;5.53;1.77;;;18.10;63.10;;;;;;4995754;28;20144;-67
2021/09/26 00:19:54;;;;;;;5.63;1.67;;;18.10;63.10;;;;;;4999645;28;20034;-67
2021/09/26 00:22:21;;;;;;;8.00;1.63;;;18.10;62.90;;;;;;4997278;28;20049;-61
2021/09/26 00:24:49;;;;;;;7.57;1.70;;;18.20;62.00;;;;;;5011720;28;20423;-61
2021/09/26 00:27:16;;;;;;;14.48;2.22;;;18.20;60.50;;;;;;5011344;28;20022;-64
2021/09/26 00:29:44;;;;;;;7.80;2.33;;;18.10;60.40;;;;;;5011597;28;20025;-63
2021/09/26 00:32:11;;;;;;;7.38;1.60;;;18.10;59.70;;;;;;5011387;28;20022;-61
2021/09/26 00:34:38;;;;;;;6.90;1.88;;;18.00;59.50;;;;;;5011550;28;20110;-67
2021/09/26 00:37:06;;;;;;;12.73;1.80;;;17.90;60.10;;;;;;5012732;28;20026;-69
2021/09/26 00:39:33;;;;;;;5.47;1.67;;;17.90;60.10;;;;;;5012302;28;20029;-70
2021/09/26 00:42:01;;;;;;;6.82;2.22;;;18.00;60.30;;;;;;4994901;28;20022;-74
2021/09/26 00:44:28;;;;;;;6.10;1.65;;;18.00;60.20;;;;;;5012208;28;20416;-73
2021/09/26 00:46:56;;;;;;;4.15;1.42;;;18.10;60.10;;;;;;5012363;28;20022;-72
2021/09/26 00:49:24;;;;;;;5.55;2.03;;;18.10;60.00;;;;;;5011324;28;20163;-70
2021/09/26 00:51:52;;;;;;;7.15;1.77;;;18.20;59.80;;;;;;5011769;28;20073;-71
2021/09/26 00:54:19;;;;;;;7.22;2.30;;;18.20;60.10;;;;;;4995184;28;20117;-67
2021/09/26 00:56:49;;;;;;;5.57;1.50;;;18.30;60.00;;;;;;5011978;28;20029;-68
2021/09/26 00:59:18;;;;;;;7.03;1.80;;;18.30;59.80;;;;;;4993445;28;20049;-68
2021/09/26 01:01:52;;;;;;;8.35;1.38;;;18.30;60.00;;;;;;5010903;28;20398;-61
2021/09/26 01:04:20;;;;;;;6.50;2.10;;;18.30;59.90;;;;;;5010542;28;20026;-68
2021/09/26 01:07:17;;;;;;;4.28;1.50;;;18.30;60.20;;;;;;5010388;28;20052;-68
2021/09/26 01:09:56;;;;;;;7.22;1.70;;;18.40;60.30;;;;;;5010566;28;20037;-69
2021/09/26 01:12:34;;;;;;;6.43;1.80;;;18.40;60.20;;;;;;5011059;28;20117;-69
2021/09/26 01:15:23;;;;;;;5.05;1.42;;;18.40;60.50;;;;;;5011087;28;20048;-61
2021/09/26 01:18:01;;;;;;;7.93;1.40;;;18.40;60.50;;;;;;4993528;28;20026;-67
2021/09/26 01:20:57;;;;;;;7.20;1.33;;;18.40;60.70;;;;;;4995486;28;20045;-66
2021/09/26 01:23:39;;;;;;;4.90;1.38;;;18.50;60.80;;;;;;4979782;28;20487;-67
2021/09/26 01:26:15;;;;;;;5.07;1.20;;;18.50;60.80;;;;;;4994707;28;20045;-70
2021/09/26 01:29:19;;;;;;;5.65;1.67;;;18.50;60.70;;;;;;4995721;28;20037;-70
2021/09/26 01:31:54;;;;;;;4.45;1.30;;;18.50;60.70;;;;;;4994679;28;20026;-71
2021/09/26 01:34:39;;;;;;;4.30;1.55;;;18.60;60.60;;;;;;4973966;28;20052;-71
2021/09/26 01:37:38;;;;;;;3.53;1.35;;;18.70;60.60;;;;;;4997004;28;20030;-73
2021/09/26 01:40:08;;;;;;;6.07;1.20;;;18.80;60.40;;;;;;4994957;28;20907;-68
2021/09/26 01:42:41;;;;;;;5.32;1.50;;;18.80;60.40;;;;;;4996873;28;20262;-67
2021/09/26 01:45:15;;;;;;;8.60;2.22;;;18.90;60.20;;;;;;4976193;28;20030;-68
2021/09/26 01:47:55;;;;;;;4.05;1.40;;;18.90;60.20;;;;;;4993834;28;20038;-63
2021/09/26 01:50:26;;;;;;;6.20;1.95;;;19.00;60.00;;;;;;4995775;28;20397;-66
2021/09/26 01:52:56;;;;;;;5.03;1.50;;;19.10;59.90;;;;;;4993904;28;20531;-68
2021/09/26 01:55:30;;;;;;;5.78;1.30;;;19.10;59.80;;;;;;4977710;28;20022;-70
2021/09/26 01:57:59;;;;;;;4.10;1.40;;;19.10;59.70;;;;;;4977453;28;20030;-68
2021/09/26 02:00:27;;;;;;;6.68;1.58;;;19.10;59.60;;;;;;4994693;28;20115;-68
2021/09/26 02:02:55;;;;;;;3.17;1.20;;;19.20;59.40;;;;;;4982562;28;20018;-66
2021/09/26 02:05:24;;;;;;;4.57;1.50;;;19.20;59.70;;;;;;5010073;28;20384;-72
2021/09/26 02:07:57;;;;;;;3.13;1.30;;;19.20;59.70;;;;;;5006578;28;20061;-67
2021/09/26 02:10:28;;;;;;;3.85;1.42;;;19.20;59.60;;;;;;5009950;28;20022;-72
2021/09/26 02:12:59;;;;;;;4.75;1.48;;;19.20;59.70;;;;;;5010403;28;20118;-70
2021/09/26 02:15:27;;;;;;;5.65;1.90;;;19.20;60.00;;;;;;5095058;28;20083;-70
2021/09/26 02:17:57;;;;;;;5.00;1.67;;;19.30;59.60;;;;;;5010414;28;20049;-70
2021/09/26 02:20:25;;;;;;;5.15;1.67;;;19.20;59.70;;;;;;5009978;28;20121;-73
2021/09/26 02:22:54;;;;;;;2.70;1.20;;;19.20;59.70;;;;;;5009756;28;20043;-73
2021/09/26 02:25:29;;;;;;;4.43;1.45;;;19.20;59.80;;;;;;5009580;28;20041;-68
2021/09/26 02:27:57;;;;;;;4.88;1.25;;;19.20;59.80;;;;;;5010199;28;20025;-69
2021/09/26 02:30:26;;;;;;;4.45;1.30;;;19.20;59.80;;;;;;5009055;28;20067;-67
2021/09/26 02:32:54;;;;;;;7.20;1.65;;;19.20;59.70;;;;;;5009550;28;20029;-65
2021/09/26 02:35:22;;;;;;;4.88;1.83;;;19.20;59.90;;;;;;5011878;28;20046;-65
2021/09/26 02:37:49;;;;;;;9.10;2.05;;;19.20;60.30;;;;;;5008831;28;20472;-69
2021/09/26 02:40:18;;;;;;;4.28;1.30;;;19.20;61.10;;;;;;5011998;28;20034;-61
2021/09/26 02:42:58;;;;;;;3.53;1.27;;;19.20;60.50;;;;;;5012613;28;20075;-67
2021/09/26 02:45:49;;;;;;;4.70;1.45;;;19.20;60.60;;;;;;5011088;28;20033;-62
2021/09/26 02:48:35;;;;;;;6.10;1.70;;;19.20;60.80;;;;;;4993826;28;20018;-65
2021/09/26 02:51:03;;;;;;;6.05;2.13;;;19.20;61.00;;;;;;5010605;28;20061;-65
2021/09/26 02:53:31;;;;;;;6.05;1.30;;;19.20;60.90;;;;;;5011814;28;20073;-63
2021/09/26 02:56:00;;;;;;;4.68;1.38;;;19.20;61.00;;;;;;5012035;28;20026;-61
2021/09/26 02:58:28;;;;;;;4.40;1.45;;;19.20;61.20;;;;;;5012073;28;20038;-63
2021/09/26 03:00:56;;;;;;;6.32;1.52;;;19.20;61.00;;;;;;5012240;28;20040;-61
2021/09/26 03:03:28;;;;;;;8.07;2.05;;;19.30;60.80;;;;;;5011787;28;20058;-67
2021/09/26 03:05:56;;;;;;;7.30;1.48;;;19.30;61.00;;;;;;5012453;28;20030;-68
2021/09/26 03:08:24;;;;;;;3.92;1.33;;;19.30;61.00;;;;;;5012281;28;20111;-66
2021/09/26 03:10:55;;;;;;;4.72;1.80;;;19.30;61.10;;;;;;5011904;28;20022;-63
2021/09/26 03:13:24;;;;;;;2.97;1.33;;;19.30;61.10;;;;;;4994524;28;20034;-65
2021/09/26 03:15:51;;;;;;;6.15;1.67;;;19.30;60.90;;;;;;5012162;28;20022;-67
2021/09/26 03:18:18;;;;;;;5.20;1.35;;;19.30;60.80;;;;;;5012610;28;20089;-65
2021/09/26 03:20:46;;;;;;;3.80;1.20;;;19.30;60.80;;;;;;5011989;28;20049;-66
2021/09/26 03:23:13;;;;;;;10.55;2.33;;;19.30;60.90;;;;;;5012201;28;20056;-65
2021/09/26 03:25:41;;;;;;;4.70;1.50;;;19.30;61.00;;;;;;5011762;28;20436;-60
2021/09/26 03:28:08;;;;;;;13.13;1.85;;;19.40;60.80;;;;;;5012324;28;20038;-68
2021/09/26 03:30:36;;;;;;;6.13;1.42;;;19.30;61.80;;;;;;5011931;28;20159;-66
2021/09/26 03:33:03;;;;;;;7.65;1.35;;;19.40;61.70;;;;;;5012349;28;20440;-63
2021/09/26 03:35:31;;;;;;;2.97;1.05;;;19.40;61.90;;;;;;5012471;28;20464;-64
2021/09/26 03:37:58;;;;;;;4.80;1.50;;;19.40;62.10;;;;;;5011784;28;20088;-61
2021/09/26 03:40:26;;;;;;;5.85;1.45;;;19.40;62.20;;;;;;5011974;28;20471;-62
2021/09/26 03:42:53;;;;;;;7.13;1.63;;;19.40;62.20;;;;;;5011753;28;20022;-70
2021/09/26 03:45:21;;;;;;;3.95;1.75;;;19.40;62.10;;;;;;4991678;28;20082;-63
2021/09/26 03:47:50;;;;;;;4.88;1.65;;;19.40;62.40;;;;;;4980287;28;20392;-64
2021/09/26 03:50:17;;;;;;;11.73;1.58;;;19.40;62.40;;;;;;4996281;28;20546;-70
2021/09/26 03:52:44;;;;;;;4.80;1.52;;;19.40;61.90;;;;;;4997950;28;20049;-65
2021/09/26 03:55:12;;;;;;;4.20;1.48;;;19.40;62.20;;;;;;4994707;28;20488;-69
2021/09/26 03:57:41;;;;;;;6.05;1.73;;;19.40;61.90;;;;;;4996656;28;20042;-69
2021/09/26 04:00:14;;;;;;;10.30;2.87;;;19.50;62.00;;;;;;4997048;28;20054;-72
2021/09/26 04:02:45;;;;;;;3.70;2.13;;;19.50;62.20;;;;;;4998411;28;20026;-66
2021/09/26 04:05:12;;;;;;;5.85;2.10;;;19.50;62.20;;;;;;4993775;28;20366;-64
2021/09/26 04:07:40;;;;;;;8.02;2.38;;;19.50;62.30;;;;;;4996721;28;20130;-71
2021/09/26 04:10:09;;;;;;;6.72;2.20;;;19.50;62.00;;;;;;4998253;28;20026;-63
2021/09/26 04:12:38;;;;;;;7.38;2.72;;;19.50;61.90;;;;;;4998836;28;20488;-69
2021/09/26 04:15:06;;;;;;;6.05;1.98;;;19.50;62.40;;;;;;4992173;28;20445;-69
2021/09/26 04:17:34;;;;;;;6.63;2.45;;;19.60;62.10;;;;;;4995714;28;20034;-63
2021/09/26 04:20:03;;;;;;;8.15;1.95;;;19.60;61.90;;;;;;4999048;28;20033;-64
2021/09/26 04:22:30;;;;;;;5.97;2.30;;;19.60;62.10;;;;;;4998857;28;20030;-66
2021/09/26 04:24:58;;;;;;;4.53;1.90;;;19.60;62.00;;;;;;4992013;28;20041;-65
2021/09/26 04:27:26;;;;;;;7.00;2.17;;;19.60;61.70;;;;;;4998861;28;20034;-54
2021/09/26 04:29:54;;;;;;;6.63;1.90;;;19.70;61.60;;;;;;4997410;28;20697;-59
2021/09/26 04:32:22;;;;;;;12.35;2.22;;;19.70;60.30;;;;;;4995983;28;20039;-60
2021/09/26 04:34:50;;;;;;;6.50;2.13;;;19.50;58.50;;;;;;4992414;28;20578;-62
2021/09/26 04:37:17;;;;;;;9.82;2.20;;;19.50;58.60;;;;;;4997204;28;20029;-60
2021/09/26 04:39:45;;;;;;;6.50;2.17;;;19.30;58.20;;;;;;4994056;28;20048;-61
2021/09/26 04:42:12;;;;;;;5.78;1.40;;;19.30;58.60;;;;;;4996413;28;20109;-62
2021/09/26 04:44:40;;;;;;;10.15;2.10;;;19.20;58.10;;;;;;4992915;28;20036;-60
2021/09/26 04:47:07;;;;;;;8.88;1.75;;;19.30;58.30;;;;;;4963331;28;20040;-61
2021/09/26 04:49:35;;;;;;;6.07;2.00;;;19.20;58.30;;;;;;4994203;28;20446;-60
2021/09/26 04:52:11;;;;;;;18.73;7.20;;;19.10;58.40;;;;;;5004292;28;20091;-62
2021/09/26 04:54:39;;;;;;;9.27;3.20;;;19.10;58.70;;;;;;5005874;28;20075;-69
2021/09/26 04:57:10;;;;;;;8.10;3.65;;;19.10;58.90;;;;;;5010201;28;20028;-64
2021/09/26 04:59:45;;;;;;;11.68;5.55;;;19.10;58.90;;;;;;5009774;28;20110;-61
2021/09/26 05:03:00;;;;;;;;;;;;;;;;;;;;;
2021/09/26 05:05:28;;;;;;;11.48;5.70;;;19.20;59.10;;;;;;5010128;28;20033;-60
2021/09/26 05:08:05;;;;;;;11.35;6.07;;;19.20;58.90;;;;;;5010023;28;20030;-60
2021/09/26 05:10:33;;;;;;;8.15;4.90;;;19.20;58.90;;;;;;4992979;28;20026;-70
2021/09/26 05:13:01;;;;;;;13.90;7.32;;;19.30;59.00;;;;;;5010085;28;20553;-68
2021/09/26 05:15:29;;;;;;;13.55;8.55;;;19.30;59.10;;;;;;5009613;28;20519;-63
2021/09/26 05:17:57;;;;;;;13.00;9.45;;;19.30;59.00;;;;;;4991732;28;20384;-66
2021/09/26 05:20:25;;;;;;;11.63;8.73;;;19.30;59.20;;;;;;5009910;28;20060;-66
2021/09/26 05:22:53;;;;;;;11.35;7.88;;;19.30;59.30;;;;;;5009487;28;20373;-66
2021/09/26 05:25:22;;;;;;;9.68;6.53;;;19.20;59.20;;;;;;5009342;28;20034;-64
2021/09/26 05:27:50;;;;;;;12.30;10.52;;;19.30;59.30;;;;;;5009644;28;20384;-64
2021/09/26 05:30:17;;;;;;;17.15;15.20;;;19.20;59.50;;;;;;5009972;28;20014;-64
2021/09/26 05:32:48;;;;;;;11.40;9.65;;;19.30;59.70;;;;;;5009817;28;20101;-68
2021/09/26 05:35:15;;;;;;;11.57;10.32;;;19.30;59.80;;;;;;5009623;28;20029;-64
2021/09/26 05:37:43;;;;;;;11.80;9.55;;;19.30;60.00;;;;;;5009385;28;20388;-65
2021/09/26 05:40:11;;;;;;;14.77;12.20;;;19.30;60.80;;;;;;5007313;28;20018;-66
2021/09/26 05:42:39;;;;;;;12.20;7.32;;;19.30;60.30;;;;;;5010359;28;20025;-63
2021/09/26 05:45:07;;;;;;;9.30;7.72;;;19.30;60.90;;;;;;4991779;28;20388;-59
2021/09/26 05:47:35;;;;;;;13.80;6.97;;;19.20;60.80;;;;;;5007388;28;20018;-63
2021/09/26 05:50:03;;;;;;;9.93;6.28;;;19.30;60.80;;;;;;5007646;28;20042;-62
2021/09/26 05:52:30;;;;;;;10.95;5.65;;;19.30;61.20;;;;;;5009528;28;20137;-64
2021/09/26 05:54:58;;;;;;;8.55;5.70;;;19.20;61.10;;;;;;5009353;28;20079;-62
2021/09/26 05:57:25;;;;;;;10.85;5.15;;;19.30;61.20;;;;;;5009603;28;20033;-63
2021/09/26 05:59:53;;;;;;;8.88;4.47;;;19.30;61.20;;;;;;4991981;28;20026;-63
2021/09/26 06:02:23;;;;;;;8.75;3.70;;;19.30;62.20;;;;;;5009500;28;20041;-64
2021/09/26 06:04:51;;;;;;;7.93;4.65;;;19.30;61.90;;;;;;5009615;28;20037;-65
2021/09/26 06:07:19;;;;;;;6.63;4.63;;;19.30;61.70;;;;;;5009914;28;20022;-63
2021/09/26 06:09:47;;;;;;;6.13;4.28;;;19.30;61.80;;;;;;5011408;28;20030;-65
2021/09/26 06:12:15;;;;;;;9.35;4.20;;;19.30;61.60;;;;;;4995110;28;20032;-67
2021/09/26 06:14:43;;;;;;;8.48;4.43;;;19.30;61.60;;;;;;5012492;28;20049;-62
2021/09/26 06:17:10;;;;;;;6.82;4.18;;;19.20;61.70;;;;;;5012647;28;20022;-60
2021/09/26 06:19:38;;;;;;;8.05;4.43;;;19.20;61.80;;;;;;5013186;28;20374;-70
2021/09/26 06:22:06;;;;;;;6.40;3.28;;;19.20;61.90;;;;;;4995602;28;20029;-65
2021/09/26 06:24:34;;;;;;;7.53;3.83;;;19.20;61.90;;;;;;5012789;28;20076;-72
2021/09/26 06:27:01;;;;;;;7.35;3.90;;;19.20;62.00;;;;;;5012762;28;20114;-67
2021/09/26 06:29:29;;;;;;;8.50;3.85;;;19.10;62.00;;;;;;5012594;28;20361;-67
2021/09/26 06:31:57;;;;;;;6.75;3.75;;;19.10;62.20;;;;;;5012667;28;20037;-65
2021/09/26 06:34:24;;;;;;;6.18;3.60;;;19.10;62.20;;;;;;5012067;28;20022;-64
2021/09/26 06:36:52;;;;;;;7.07;3.58;;;19.10;62.40;;;;;;5012570;28;20026;-65
2021/09/26 06:39:20;;;;;;;6.00;3.40;;;19.10;62.50;;;;;;5012042;28;20068;-66
2021/09/26 06:41:47;;;;;;;7.43;3.08;;;19.10;62.50;;;;;;5012387;28;20108;-66
2021/09/26 06:44:15;;;;;;;6.97;3.40;;;19.00;62.50;;;;;;5012730;28;20104;-62
2021/09/26 06:46:43;;;;;;;5.72;3.05;;;19.00;62.40;;;;;;5012280;28;20033;-64
2021/09/26 06:49:12;;;;;;;6.63;3.25;;;19.00;62.50;;;;;;5012544;28;20022;-61
2021/09/26 06:51:40;;;;;;;7.85;3.10;;;19.00;62.60;;;;;;5012240;28;20053;-64
2021/09/26 06:54:08;;;;;;;7.82;3.20;;;18.90;62.70;;;;;;4994677;28;20071;-65
2021/09/26 06:56:36;;;;;;;7.45;3.47;;;18.90;62.60;;;;;;5012097;28;20455;-60
2021/09/26 06:59:03;;;;;;;5.20;3.22;;;18.90;62.60;;;;;;5012205;28;20030;-64
2021/09/26 07:01:34;;;;;;;5.93;2.78;;;18.90;62.60;;;;;;5011902;28;20022;-61
2021/09/26 07:04:03;;;;;;;5.60;2.78;;;18.80;62.60;;;;;;5012354;28;20034;-63
2021/09/26 07:06:30;;;;;;;5.78;2.53;;;18.80;62.70;;;;;;5011948;28;20153;-61
2021/09/26 07:08:58;;;;;;;5.35;2.63;;;18.80;62.90;;;;;;5011893;28;20089;-61
2021/09/26 07:11:25;;;;;;;5.22;3.00;;;18.80;63.10;;;;;;5011970;28;20030;-63
2021/09/26 07:13:53;;;;;;;7.18;2.92;;;18.80;63.10;;;;;;5011864;28;20022;-68
2021/09/26 07:16:27;;;;;;;5.00;2.25;;;18.80;63.10;;;;;;5011974;28;20403;-62
2021/09/26 07:18:55;;;;;;;6.28;2.88;;;18.70;63.10;;;;;;5012043;28;20038;-63
2021/09/26 07:21:22;;;;;;;7.15;2.72;;;18.70;63.20;;;;;;5010811;28;20030;-62
2021/09/26 07:23:50;;;;;;;4.93;2.40;;;18.70;63.20;;;;;;5011707;28;20030;-66
2021/09/26 07:26:18;;;;;;;7.25;2.97;;;18.70;63.00;;;;;;5011915;28;20026;-66
2021/09/26 07:28:46;;;;;;;5.10;2.60;;;18.70;63.20;;;;;;5011824;28;20026;-62
2021/09/26 07:31:15;;;;;;;6.25;2.75;;;18.70;63.20;;;;;;5011811;28;20022;-62
2021/09/26 07:33:43;;;;;;;4.40;2.42;;;18.60;63.20;;;;;;5011597;28;20514;-66
2021/09/26 07:36:10;;;;;;;6.88;2.78;;;18.60;63.00;;;;;;5011551;28;20469;-63
2021/09/26 07:38:38;;;;;;;5.05;2.30;;;18.60;63.10;;;;;;5011582;28;20042;-63
2021/09/26 07:41:06;;;;;;;5.47;2.45;;;18.60;63.20;;;;;;5011545;28;20019;-60
2021/09/26 07:43:33;;;;;;;4.20;2.15;;;18.60;63.30;;;;;;5011208;28;20434;-63
2021/09/26 07:46:01;;;;;;;3.42;2.25;;;18.60;63.50;;;;;;5011565;28;20022;-65
2021/09/26 07:48:32;;;;;;;6.15;2.60;;;18.50;63.60;;;;;;5011727;28;20030;-64
2021/09/26 07:51:00;;;;;;;4.22;2.28;;;18.50;63.60;;;;;;5011188;28;20404;-62
2021/09/26 07:53:27;;;;;;;4.93;2.10;;;18.50;63.60;;;;;;5011000;28;20050;-62
2021/09/26 07:55:55;;;;;;;4.22;2.10;;;18.50;63.60;;;;;;4993384;28;20384;-63
2021/09/26 07:58:29;;;;;;;4.20;2.38;;;18.50;63.30;;;;;;4993684;28;20064;-64
2021/09/26 08:00:57;;;;;;;5.15;1.92;;;18.50;63.20;;;;;;5011377;28;20029;-67
2021/09/26 08:03:25;;;;;;;4.65;2.25;;;18.50;63.10;;;;;;5010108;28;20026;-65
2021/09/26 08:05:53;;;;;;;3.67;2.03;;;18.40;63.10;;;;;;5011021;28;20030;-66
2021/09/26 08:08:21;;;;;;;5.07;2.05;;;18.40;63.00;;;;;;4994481;28;20377;-63
2021/09/26 08:10:51;;;;;;;5.53;2.20;;;18.40;62.90;;;;;;5011777;28;20038;-68
2021/09/26 08:13:19;;;;;;;4.97;2.50;;;18.40;62.90;;;;;;5011184;28;20113;-64
2021/09/26 08:15:47;;;;;;;6.18;2.90;;;18.30;62.80;;;;;;5012355;28;20048;-67
2021/09/26 08:18:14;;;;;;;14.00;5.65;;;18.30;62.80;;;;;;4994116;28;20615;-64
2021/09/26 08:20:42;;;;;;;15.85;6.13;;;18.30;62.80;;;;;;5011236;28;20040;-63
2021/09/26 08:23:12;;;;;;;16.40;7.88;;;18.30;62.70;;;;;;5010806;28;20381;-67
2021/09/26 08:25:46;;;;;;;21.45;8.82;;;18.30;62.90;;;;;;5009774;28;20143;-74
2021/09/26 08:28:14;;;;;;;21.73;9.70;;;18.30;62.80;;;;;;4993922;28;20040;-68
2021/09/26 08:30:42;;;;;;;21.48;10.98;;;18.30;62.80;;;;;;4994991;28;20133;-66
2021/09/26 08:33:10;;;;;;;24.15;12.60;;;18.30;62.80;;;;;;4998446;28;20034;-64
2021/09/26 08:35:37;;;;;;;24.10;12.90;;;18.20;62.80;;;;;;4999942;28;20078;-68
2021/09/26 08:38:05;;;;;;;29.77;15.32;;;18.20;62.70;;;;;;4998758;28;20035;-66
2021/09/26 08:40:33;;;;;;;31.77;15.05;;;18.30;62.80;;;;;;4996280;28;20133;-62
2021/09/26 08:43:01;;;;;;;33.20;15.48;;;18.20;62.90;;;;;;4996314;28;20022;-63
2021/09/26 08:45:30;;;;;;;32.50;15.00;;;18.20;62.70;;;;;;4978217;28;20030;-64
2021/09/26 08:47:58;;;;;;;30.80;16.35;;;18.20;62.80;;;;;;4977700;28;20112;-62
2021/09/26 08:50:28;;;;;;;32.90;15.93;;;18.20;62.70;;;;;;4993348;28;20052;-66
2021/09/26 08:52:55;;;;;;;31.40;15.45;;;18.20;62.70;;;;;;4998648;28;20049;-65
2021/09/26 08:55:23;;;;;;;33.72;15.75;;;18.20;62.60;;;;;;4993185;28;21321;-63
2021/09/26 08:57:53;;;;;;;29.67;15.38;;;18.20;62.60;;;;;;4996966;28;20780;-67
2021/09/26 09:00:21;;;;;;;28.08;14.52;;;18.20;62.60;;;;;;4993953;28;20029;-65
2021/09/26 09:02:49;;;;;;;26.15;13.38;;;18.20;62.50;;;;;;4995068;28;20026;-65
2021/09/26 09:05:53;;;;;;;27.38;13.98;;;18.20;62.50;;;;;;4993509;28;20030;-67
2021/09/26 09:08:24;;;;;;;27.15;14.60;;;18.20;62.50;;;;;;4993623;28;21052;-69
2021/09/26 09:11:11;;;;;;;26.98;13.68;;;18.20;62.60;;;;;;4992977;28;20030;-61
2021/09/26 09:13:42;;;;;;;26.55;13.55;;;18.20;62.40;;;;;;4996555;28;20014;-65
2021/09/26 09:16:19;;;;;;;25.05;12.98;;;18.20;62.40;;;;;;4997187;28;20022;-67
2021/09/26 09:18:52;;;;;;;25.27;12.60;;;18.20;62.40;;;;;;4995360;28;20058;-71
2021/09/26 09:21:22;;;;;;;23.70;12.98;;;18.10;62.40;;;;;;4993957;28;20022;-62
2021/09/26 09:24:13;;;;;;;23.90;12.50;;;18.10;62.50;;;;;;4998584;28;20032;-63
2021/09/26 09:26:44;;;;;;;26.10;12.57;;;18.10;62.40;;;;;;4997909;28;20018;-64
2021/09/26 09:29:11;;;;;;;27.38;11.77;;;18.10;62.50;;;;;;4974936;28;20801;-66
2021/09/26 09:31:54;;;;;;;24.90;11.77;;;18.10;62.50;;;;;;4995994;28;20508;-66
2021/09/26 09:34:32;;;;;;;21.27;11.30;;;18.10;62.50;;;;;;4997143;28;20026;-61
2021/09/26 09:37:20;;;;;;;20.38;11.45;;;18.10;62.50;;;;;;4998684;28;20030;-64
2021/09/26 09:40:19;;;;;;;18.63;11.20;;;18.10;62.50;;;;;;4997904;28;20041;-69
2021/09/26 09:42:51;;;;;;;22.65;11.05;;;18.00;62.40;;;;;;4974639;28;20074;-70
2021/09/26 09:45:37;;;;;;;20.92;10.85;;;18.00;62.50;;;;;;4999604;28;20033;-66
2021/09/26 09:48:12;;;;;;;18.45;10.70;;;18.10;62.50;;;;;;5000504;28;20038;-71
2021/09/26 09:50:53;;;;;;;18.02;10.50;;;18.10;62.50;;;;;;4992810;28;20570;-70
2021/09/26 09:53:23;;;;;;;19.40;9.85;;;18.00;62.50;;;;;;4999438;28;20038;-69
2021/09/26 09:55:58;;;;;;;19.23;10.13;;;18.00;62.50;;;;;;5000993;28;20252;-68
2021/09/26 09:58:31;;;;;;;16.42;9.80;;;18.00;62.50;;;;;;4999770;28;20033;-68
2021/09/26 10:00:59;;;;;;;20.10;10.38;;;18.00;62.40;;;;;;4994102;28;20022;-65
2021/09/26 10:03:40;;;;;;;17.02;9.45;;;18.00;62.40;;;;;;4999523;28;20034;-65
2021/09/26 10:06:43;;;;;;;17.63;9.30;;;17.90;62.40;;;;;;4999030;28;20025;-69
2021/09/26 10:09:30;;;;;;;16.75;8.63;;;17.90;62.30;;;;;;4989257;28;20550;-71
2021/09/26 10:12:00;;;;;;;17.13;8.07;;;17.90;63.00;;;;;;4999269;28;20048;-68
2021/09/26 10:14:31;;;;;;;14.25;8.05;;;17.90;63.20;;;;;;5000087;28;20586;-70
2021/09/26 10:17:02;;;;;;;17.73;8.88;;;17.90;62.90;;;;;;4998917;28;20507;-70
2021/09/26 10:19:31;;;;;;;16.60;8.55;;;17.80;63.00;;;;;;4991376;28;20045;-65
2021/09/26 10:22:01;;;;;;;19.83;8.82;;;17.80;62.90;;;;;;5000377;28;20062;-69
2021/09/26 10:24:36;;;;;;;15.50;7.78;;;17.80;62.80;;;;;;4999706;28;20029;-66
2021/09/26 10:27:06;;;;;;;15.23;7.68;;;17.80;62.90;;;;;;4998257;28;20403;-66
2021/09/26 10:29:36;;;;;;;15.88;7.53;;;17.80;62.70;;;;;;4991022;28;20044;-67
2021/09/26 10:32:07;;;;;;;15.50;7.45;;;17.80;62.70;;;;;;5000193;28;20060;-71
2021/09/26 10:34:36;;;;;;;15.82;7.90;;;17.80;62.80;;;;;;5001867;28;20101;-69
2021/09/26 10:37:06;;;;;;;15.80;8.25;;;17.80;63.00;;;;;;4999219;28;20150;-69
2021/09/26 10:39:35;;;;;;;15.13;7.95;;;17.80;62.90;;;;;;4994068;28;20042;-68
2021/09/26 10:42:18;;;;;;;15.38;7.70;;;17.80;62.80;;;;;;5002678;28;20050;-72
2021/09/26 10:45:03;;;;;;;16.75;7.75;;;17.80;62.90;;;;;;5000775;28;20113;-68
2021/09/26 10:47:35;;;;;;;16.30;7.70;;;17.80;62.90;;;;;;4999519;28;20049;-72
2021/09/26 10:50:02;;;;;;;;;;;17.80;62.70;;;;;;4993756;28;20050;-72
2021/09/26 10:52:32;;;;;;;16.40;7.47;;;17.90;62.80;;;;;;5000423;28;20286;-72
2021/09/26 10:55:24;;;;;;;14.77;7.60;;;17.80;62.70;;;;;;5000481;28;20022;-68
2021/09/26 10:58:09;;;;;;;15.63;8.10;;;17.80;62.60;;;;;;4999131;28;20106;-70
2021/09/26 11:01:04;;;;;;;12.60;6.43;;;17.80;62.60;;;;;;4993885;28;20151;-66
2021/09/26 11:03:40;;;;;;;15.40;7.35;;;17.80;62.70;;;;;;5000328;28;20077;-67
2021/09/26 11:06:30;;;;;;;14.88;6.53;;;17.80;62.60;;;;;;4997948;28;20129;-67
2021/09/26 11:09:03;;;;;;;11.65;6.28;;;17.80;62.70;;;;;;4995705;28;20098;-65
2021/09/26 11:11:39;;;;;;;15.00;7.43;;;17.80;62.70;;;;;;4997417;28;20107;-66
2021/09/26 11:14:09;;;;;;;12.10;6.57;;;17.80;62.60;;;;;;4999526;28;20038;-68
2021/09/26 11:16:54;;;;;;;14.07;7.00;;;17.80;62.70;;;;;;4999256;28;20030;-67
2021/09/26 11:19:24;;;;;;;13.23;6.63;;;17.80;62.70;;;;;;4993342;28;20045;-65
2021/09/26 11:21:58;;;;;;;12.02;6.53;;;17.70;62.80;;;;;;4996589;28;20088;-65
2021/09/26 11:24:35;;;;;;;13.35;6.40;;;17.70;62.80;;;;;;4998346;28;20034;-62
2021/09/26 11:27:13;;;;;;;12.30;6.80;;;17.70;62.80;;;;;;4999788;28;20037;-64
2021/09/26 11:29:43;;;;;;;11.65;6.43;;;17.70;63.10;;;;;;4993736;28;20208;-68
2021/09/26 11:32:20;;;;;;;11.23;6.50;;;17.70;62.90;;;;;;4997704;28;20054;-68
2021/09/26 11:34:51;;;;;;;13.40;7.03;;;17.70;63.00;;;;;;4997800;28;20470;-66
2021/09/26 11:37:40;;;;;;;8.45;5.95;;;17.60;63.10;;;;;;4981899;28;20034;-66
2021/09/26 11:40:13;;;;;;;10.32;5.63;;;17.60;63.10;;;;;;4993223;28;20440;-63
2021/09/26 11:42:43;;;;;;;13.82;6.60;;;17.60;63.20;;;;;;4999448;28;20075;-68
2021/09/26 11:45:21;;;;;;;13.38;6.28;;;17.60;64.00;;;;;;4996244;28;20026;-63
2021/09/26 11:48:08;;;;;;;13.23;5.68;;;17.50;63.60;;;;;;4995311;28;20037;-64
2021/09/26 11:50:42;;;;;;;10.63;6.70;;;17.60;63.70;;;;;;4989187;28;20060;-63
2021/09/26 11:53:13;;;;;;;10.07;6.18;;;17.50;63.80;;;;;;4997281;28;20108;-58
2021/09/26 11:55:43;;;;;;;12.68;6.43;;;17.50;63.70;;;;;;4998262;28;20033;-64
2021/09/26 11:58:12;;;;;;;10.57;5.75;;;17.50;63.80;;;;;;4996682;28;21158;-69
2021/09/26 12:00:41;;;;;;;9.40;5.63;;;17.50;63.90;;;;;;4994271;28;20442;-64
2021/09/26 12:03:27;;;;;;;11.27;6.10;;;17.50;63.70;;;;;;4997799;28;20030;-67
2021/09/26 12:05:56;;;;;;;12.30;5.45;;;17.40;63.70;;;;;;4998625;28;20034;-60
2021/09/26 12:08:24;;;;;;;10.20;5.82;;;17.50;63.90;;;;;;4996350;28;20037;-64
2021/09/26 12:11:08;;;;;;;10.32;5.72;;;17.50;64.10;;;;;;4992965;28;20026;-70
2021/09/26 12:13:53;;;;;;;12.05;5.70;;;17.40;64.00;;;;;;4999070;28;20072;-68
2021/09/26 12:16:23;;;;;;;8.82;5.25;;;17.40;64.10;;;;;;4998676;28;20024;-65
2021/09/26 12:18:52;;;;;;;11.20;5.72;;;17.40;64.20;;;;;;4997357;28;20041;-61
2021/09/26 12:21:24;;;;;;;10.20;5.68;;;17.30;64.30;;;;;;5000871;28;20029;-70
2021/09/26 12:23:57;;;;;;;9.07;5.80;;;17.30;64.30;;;;;;5011231;28;20044;-69
2021/09/26 12:26:26;;;;;;;;;;;17.40;64.40;;;;;;5011886;28;20051;-60
2021/09/26 12:29:02;;;;;;;9.95;5.32;;;17.30;64.50;;;;;;5011130;28;19905;-68
2021/09/26 12:31:31;;;;;;;10.27;5.45;;;17.30;64.40;;;;;;5011192;28;20048;-61
2021/09/26 12:34:05;;;;;;;7.90;4.82;;;17.30;64.50;;;;;;4988998;28;20492;-66
2021/09/26 12:36:40;;;;;;;10.90;5.22;;;17.40;64.60;;;;;;4997344;28;20026;-63
2021/09/26 12:39:20;;;;;;;10.38;5.13;;;17.30;64.50;;;;;;4980575;28;20037;-68
2021/09/26 12:41:52;;;;;;;8.25;5.60;;;17.40;64.80;;;;;;4996710;28;20022;-65
2021/09/26 12:44:46;;;;;;;7.88;4.78;;;17.30;64.60;;;;;;4994158;28;20484;-63
2021/09/26 12:47:19;;;;;;;10.65;5.38;;;17.40;64.70;;;;;;4995933;28;20197;-64
2021/09/26 12:49:48;;;;;;;9.73;5.05;;;17.30;64.70;;;;;;4995617;28;20075;-68
2021/09/26 12:52:25;;;;;;;13.02;5.32;;;17.30;65.00;;;;;;4994802;28;20057;-62
2021/09/26 12:54:59;;;;;;;8.02;5.20;;;17.30;64.90;;;;;;4997222;28;20018;-63
2021/09/26 12:57:29;;;;;;;8.77;4.85;;;17.30;64.90;;;;;;4995765;28;20559;-66
2021/09/26 13:00:12;;;;;;;8.23;4.60;;;17.20;65.10;;;;;;4994706;28;20038;-73
2021/09/26 13:02:52;;;;;;;9.57;5.03;;;17.20;65.10;;;;;;4975163;28;20044;-62
2021/09/26 13:05:38;;;;;;;11.10;4.90;;;17.30;65.00;;;;;;4997058;28;20366;-66